sensor_id;sensor_type;location;lat;lon;timestamp;P1;durP1;ratioP1;P2;durP2;ratioP2
46701;SDS011;33449;50.712;7.124;2023-04-25T00:00:46;17.85;;;4.72;;
46701;SDS011;33449;50.712;7.124;2023-04-25T00:03:15;21.67;;;5.93;;
46701;SDS011;33449;50.712;7.124;2023-04-25T00:05:45;12.57;;;5.07;;
46701;SDS011;33449;50.712;7.124;2023-04-25T00:08:20;15.85;;;5.20;;
46701;SDS011;33449;50.712;7.124;2023-04-25T00:10:51;14.88;;;4.70;;
46701;SDS011;33449;50.712;7.124;2023-04-25T00:13:26;13.20;;;4.32;;
46701;SDS011;33449;50.712;7.124;2023-04-25T00:15:59;12.18;;;5.20;;
46701;SDS011;33449;50.712;7.124;2023-04-25T00:18:30;11.88;;;4.75;;
46701;SDS011;33449;50.712;7.124;2023-04-25T00:23:48;13.95;;;5.53;;
46701;SDS011;33449;50.712;7.124;2023-04-25T00:26:18;15.77;;;5.22;;
46701;SDS011;33449;50.712;7.124;2023-04-25T00:28:50;16.70;;;4.50;;
46701;SDS011;33449;50.712;7.124;2023-04-25T00:31:30;15.60;;;5.80;;
46701;SDS011;33449;50.712;7.124;2023-04-25T00:34:05;11.60;;;4.30;;
46701;SDS011;33449;50.712;7.124;2023-04-25T00:36:39;15.90;;;5.20;;
46701;SDS011;33449;50.712;7.124;2023-04-25T00:39:08;12.27;;;4.85;;
46701;SDS011;33449;50.712;7.124;2023-04-25T00:41:35;16.83;;;5.80;;
46701;SDS011;33449;50.712;7.124;2023-04-25T00:44:25;17.20;;;6.43;;
46701;SDS011;33449;50.712;7.124;2023-04-25T00:47:10;16.77;;;4.32;;
46701;SDS011;33449;50.712;7.124;2023-04-25T00:49:40;19.83;;;6.38;;
46701;SDS011;33449;50.712;7.124;2023-04-25T00:52:12;18.60;;;6.28;;
46701;SDS011;33449;50.712;7.124;2023-04-25T00:54:45;13.25;;;5.00;;
46701;SDS011;33449;50.712;7.124;2023-04-25T00:57:15;14.57;;;6.13;;
46701;SDS011;33449;50.712;7.124;2023-04-25T00:59:43;17.17;;;5.93;;
46701;SDS011;33449;50.712;7.124;2023-04-25T01:02:28;20.50;;;5.95;;
46701;SDS011;33449;50.712;7.124;2023-04-25T01:04:58;17.10;;;6.53;;
46701;SDS011;33449;50.712;7.124;2023-04-25T01:07:27;15.02;;;6.30;;
46701;SDS011;33449;50.712;7.124;2023-04-25T01:10:00;17.83;;;5.40;;
46701;SDS011;33449;50.712;7.124;2023-04-25T01:12:34;14.75;;;5.53;;
46701;SDS011;33449;50.712;7.124;2023-04-25T01:15:04;19.55;;;5.70;;
46701;SDS011;33449;50.712;7.124;2023-04-25T01:17:35;13.43;;;5.70;;
46701;SDS011;33449;50.712;7.124;2023-04-25T01:20:20;16.92;;;6.97;;
46701;SDS011;33449;50.712;7.124;2023-04-25T01:22:52;14.48;;;5.88;;
46701;SDS011;33449;50.712;7.124;2023-04-25T01:27:47;15.23;;;5.05;;
46701;SDS011;33449;50.712;7.124;2023-04-25T01:30:18;18.88;;;6.43;;
46701;SDS011;33449;50.712;7.124;2023-04-25T01:32:52;19.40;;;7.40;;
46701;SDS011;33449;50.712;7.124;2023-04-25T01:37:48;16.60;;;6.88;;
46701;SDS011;33449;50.712;7.124;2023-04-25T01:40:21;17.55;;;7.18;;
46701;SDS011;33449;50.712;7.124;2023-04-25T01:42:52;21.00;;;6.57;;
46701;SDS011;33449;50.712;7.124;2023-04-25T01:45:28;14.45;;;6.05;;
46701;SDS011;33449;50.712;7.124;2023-04-25T01:47:56;19.05;;;6.72;;
46701;SDS011;33449;50.712;7.124;2023-04-25T01:50:28;13.52;;;6.10;;
46701;SDS011;33449;50.712;7.124;2023-04-25T01:53:00;19.52;;;6.95;;
46701;SDS011;33449;50.712;7.124;2023-04-25T01:55:42;29.73;;;7.72;;
46701;SDS011;33449;50.712;7.124;2023-04-25T01:58:12;20.95;;;7.03;;
46701;SDS011;33449;50.712;7.124;2023-04-25T02:00:41;14.60;;;6.72;;
46701;SDS011;33449;50.712;7.124;2023-04-25T02:03:18;22.75;;;7.03;;
46701;SDS011;33449;50.712;7.124;2023-04-25T02:11:05;21.17;;;7.45;;
46701;SDS011;33449;50.712;7.124;2023-04-25T02:13:32;15.02;;;6.90;;
46701;SDS011;33449;50.712;7.124;2023-04-25T02:16:02;14.60;;;6.50;;
46701;SDS011;33449;50.712;7.124;2023-04-25T02:18:46;24.17;;;6.90;;
46701;SDS011;33449;50.712;7.124;2023-04-25T02:21:14;17.45;;;6.82;;
46701;SDS011;33449;50.712;7.124;2023-04-25T02:23:45;25.65;;;7.57;;
46701;SDS011;33449;50.712;7.124;2023-04-25T02:26:18;19.00;;;8.93;;
46701;SDS011;33449;50.712;7.124;2023-04-25T02:28:45;17.90;;;7.13;;
46701;SDS011;33449;50.712;7.124;2023-04-25T02:31:12;18.23;;;6.72;;
46701;SDS011;33449;50.712;7.124;2023-04-25T02:33:42;34.00;;;7.90;;
46701;SDS011;33449;50.712;7.124;2023-04-25T02:36:10;22.73;;;8.52;;
46701;SDS011;33449;50.712;7.124;2023-04-25T02:41:12;25.30;;;7.18;;
46701;SDS011;33449;50.712;7.124;2023-04-25T02:43:42;29.20;;;7.47;;
46701;SDS011;33449;50.712;7.124;2023-04-25T02:46:14;19.73;;;7.38;;
46701;SDS011;33449;50.712;7.124;2023-04-25T02:49:05;23.42;;;7.32;;
46701;SDS011;33449;50.712;7.124;2023-04-25T02:51:40;18.15;;;7.75;;
46701;SDS011;33449;50.712;7.124;2023-04-25T02:54:10;26.15;;;7.55;;
46701;SDS011;33449;50.712;7.124;2023-04-25T02:56:42;21.88;;;7.50;;
46701;SDS011;33449;50.712;7.124;2023-04-25T02:59:15;22.20;;;7.30;;
46701;SDS011;33449;50.712;7.124;2023-04-25T03:04:09;19.13;;;7.22;;
46701;SDS011;33449;50.712;7.124;2023-04-25T03:06:42;19.85;;;6.63;;
46701;SDS011;33449;50.712;7.124;2023-04-25T03:09:09;16.60;;;7.13;;
46701;SDS011;33449;50.712;7.124;2023-04-25T03:11:38;14.13;;;6.40;;
46701;SDS011;33449;50.712;7.124;2023-04-25T03:14:05;22.77;;;6.50;;
46701;SDS011;33449;50.712;7.124;2023-04-25T03:16:36;19.70;;;7.38;;
46701;SDS011;33449;50.712;7.124;2023-04-25T03:19:03;22.85;;;7.50;;
46701;SDS011;33449;50.712;7.124;2023-04-25T03:21:48;16.05;;;8.00;;
46701;SDS011;33449;50.712;7.124;2023-04-25T03:24:19;22.67;;;7.55;;
46701;SDS011;33449;50.712;7.124;2023-04-25T03:29:41;22.83;;;7.23;;
46701;SDS011;33449;50.712;7.124;2023-04-25T03:32:18;27.08;;;7.72;;
46701;SDS011;33449;50.712;7.124;2023-04-25T03:34:46;24.95;;;7.60;;
46701;SDS011;33449;50.712;7.124;2023-04-25T03:37:16;17.17;;;6.47;;
46701;SDS011;33449;50.712;7.124;2023-04-25T03:39:48;24.77;;;8.98;;
46701;SDS011;33449;50.712;7.124;2023-04-25T03:42:18;25.40;;;6.82;;
46701;SDS011;33449;50.712;7.124;2023-04-25T03:44:54;17.48;;;6.57;;
46701;SDS011;33449;50.712;7.124;2023-04-25T03:47:23;20.88;;;7.25;;
46701;SDS011;33449;50.712;7.124;2023-04-25T03:49:51;17.80;;;7.25;;
46701;SDS011;33449;50.712;7.124;2023-04-25T03:52:20;20.15;;;6.50;;
46701;SDS011;33449;50.712;7.124;2023-04-25T03:54:49;21.35;;;6.70;;
46701;SDS011;33449;50.712;7.124;2023-04-25T03:57:22;23.33;;;7.35;;
46701;SDS011;33449;50.712;7.124;2023-04-25T03:59:51;25.55;;;7.00;;
46701;SDS011;33449;50.712;7.124;2023-04-25T04:02:21;33.78;;;6.78;;
46701;SDS011;33449;50.712;7.124;2023-04-25T04:04:49;17.30;;;6.20;;
46701;SDS011;33449;50.712;7.124;2023-04-25T04:07:17;17.38;;;7.03;;
46701;SDS011;33449;50.712;7.124;2023-04-25T04:09:44;25.27;;;7.88;;
46701;SDS011;33449;50.712;7.124;2023-04-25T04:12:15;21.08;;;7.40;;
46701;SDS011;33449;50.712;7.124;2023-04-25T04:14:42;21.75;;;7.43;;
46701;SDS011;33449;50.712;7.124;2023-04-25T04:17:15;28.40;;;7.20;;
46701;SDS011;33449;50.712;7.124;2023-04-25T04:19:48;27.60;;;8.05;;
46701;SDS011;33449;50.712;7.124;2023-04-25T04:22:22;27.50;;;7.55;;
46701;SDS011;33449;50.712;7.124;2023-04-25T04:24:58;18.30;;;7.10;;
46701;SDS011;33449;50.712;7.124;2023-04-25T04:27:38;16.33;;;6.13;;
46701;SDS011;33449;50.712;7.124;2023-04-25T04:30:14;21.88;;;6.82;;
46701;SDS011;33449;50.712;7.124;2023-04-25T04:32:42;19.70;;;7.88;;
46701;SDS011;33449;50.712;7.124;2023-04-25T04:35:09;20.67;;;6.82;;
46701;SDS011;33449;50.712;7.124;2023-04-25T04:37:37;17.20;;;6.95;;
46701;SDS011;33449;50.712;7.124;2023-04-25T04:40:08;20.33;;;7.18;;
46701;SDS011;33449;50.712;7.124;2023-04-25T04:42:57;21.08;;;8.30;;
46701;SDS011;33449;50.712;7.124;2023-04-25T04:45:42;24.95;;;7.18;;
46701;SDS011;33449;50.712;7.124;2023-04-25T04:48:14;27.02;;;7.38;;
46701;SDS011;33449;50.712;7.124;2023-04-25T04:50:45;32.75;;;8.73;;
46701;SDS011;33449;50.712;7.124;2023-04-25T04:53:27;17.75;;;6.97;;
46701;SDS011;33449;50.712;7.124;2023-04-25T04:55:56;22.50;;;7.45;;
46701;SDS011;33449;50.712;7.124;2023-04-25T04:58:32;25.40;;;7.28;;
46701;SDS011;33449;50.712;7.124;2023-04-25T05:01:17;27.17;;;7.05;;
46701;SDS011;33449;50.712;7.124;2023-04-25T05:03:46;23.73;;;7.95;;
46701;SDS011;33449;50.712;7.124;2023-04-25T05:06:20;27.15;;;7.80;;
46701;SDS011;33449;50.712;7.124;2023-04-25T05:08:50;26.10;;;7.38;;
46701;SDS011;33449;50.712;7.124;2023-04-25T05:11:33;16.80;;;7.23;;
46701;SDS011;33449;50.712;7.124;2023-04-25T05:14:12;22.83;;;7.47;;
46701;SDS011;33449;50.712;7.124;2023-04-25T05:16:43;17.60;;;6.32;;
46701;SDS011;33449;50.712;7.124;2023-04-25T05:19:13;17.83;;;7.10;;
46701;SDS011;33449;50.712;7.124;2023-04-25T05:21:48;29.92;;;7.85;;
46701;SDS011;33449;50.712;7.124;2023-04-25T05:24:20;17.70;;;6.72;;
46701;SDS011;33449;50.712;7.124;2023-04-25T05:26:51;22.00;;;7.25;;
46701;SDS011;33449;50.712;7.124;2023-04-25T05:29:26;21.92;;;7.60;;
46701;SDS011;33449;50.712;7.124;2023-04-25T05:31:59;19.58;;;7.30;;
46701;SDS011;33449;50.712;7.124;2023-04-25T05:34:27;25.55;;;7.75;;
46701;SDS011;33449;50.712;7.124;2023-04-25T05:36:56;17.30;;;6.18;;
46701;SDS011;33449;50.712;7.124;2023-04-25T05:42:00;26.08;;;7.68;;
46701;SDS011;33449;50.712;7.124;2023-04-25T05:44:30;27.17;;;7.50;;
46701;SDS011;33449;50.712;7.124;2023-04-25T05:47:01;19.98;;;7.00;;
46701;SDS011;33449;50.712;7.124;2023-04-25T05:49:36;26.92;;;8.05;;
46701;SDS011;33449;50.712;7.124;2023-04-25T05:52:06;20.35;;;6.22;;
46701;SDS011;33449;50.712;7.124;2023-04-25T05:54:43;29.65;;;7.47;;
46701;SDS011;33449;50.712;7.124;2023-04-25T05:57:26;27.15;;;8.43;;
46701;SDS011;33449;50.712;7.124;2023-04-25T05:59:54;28.27;;;7.47;;
46701;SDS011;33449;50.712;7.124;2023-04-25T06:02:28;17.90;;;6.90;;
46701;SDS011;33449;50.712;7.124;2023-04-25T06:04:59;17.92;;;7.63;;
46701;SDS011;33449;50.712;7.124;2023-04-25T06:07:32;23.15;;;7.72;;
46701;SDS011;33449;50.712;7.124;2023-04-25T06:10:23;18.25;;;7.72;;
46701;SDS011;33449;50.712;7.124;2023-04-25T06:12:54;25.25;;;8.40;;
46701;SDS011;33449;50.712;7.124;2023-04-25T06:15:22;20.60;;;8.15;;
46701;SDS011;33449;50.712;7.124;2023-04-25T06:17:56;25.92;;;7.45;;
46701;SDS011;33449;50.712;7.124;2023-04-25T06:20:32;19.23;;;7.70;;
46701;SDS011;33449;50.712;7.124;2023-04-25T06:23:01;30.95;;;10.15;;
46701;SDS011;33449;50.712;7.124;2023-04-25T06:25:31;24.92;;;8.50;;
46701;SDS011;33449;50.712;7.124;2023-04-25T06:28:03;26.77;;;9.60;;
46701;SDS011;33449;50.712;7.124;2023-04-25T06:30:41;28.25;;;7.53;;
46701;SDS011;33449;50.712;7.124;2023-04-25T06:33:20;28.85;;;7.88;;
46701;SDS011;33449;50.712;7.124;2023-04-25T06:35:47;35.92;;;8.40;;
46701;SDS011;33449;50.712;7.124;2023-04-25T06:38:24;22.55;;;8.60;;
46701;SDS011;33449;50.712;7.124;2023-04-25T06:40:58;28.83;;;8.40;;
46701;SDS011;33449;50.712;7.124;2023-04-25T06:43:34;29.10;;;8.45;;
46701;SDS011;33449;50.712;7.124;2023-04-25T06:46:14;28.48;;;7.63;;
46701;SDS011;33449;50.712;7.124;2023-04-25T06:48:47;30.15;;;7.88;;
46701;SDS011;33449;50.712;7.124;2023-04-25T06:51:20;29.63;;;8.50;;
46701;SDS011;33449;50.712;7.124;2023-04-25T06:54:00;23.27;;;8.07;;
46701;SDS011;33449;50.712;7.124;2023-04-25T06:56:35;27.95;;;7.65;;
46701;SDS011;33449;50.712;7.124;2023-04-25T06:59:12;24.48;;;6.80;;
46701;SDS011;33449;50.712;7.124;2023-04-25T07:02:01;34.03;;;8.73;;
46701;SDS011;33449;50.712;7.124;2023-04-25T07:04:45;19.10;;;7.00;;
46701;SDS011;33449;50.712;7.124;2023-04-25T07:07:21;23.67;;;7.95;;
46701;SDS011;33449;50.712;7.124;2023-04-25T07:09:57;26.20;;;8.70;;
46701;SDS011;33449;50.712;7.124;2023-04-25T07:12:27;25.05;;;8.48;;
46701;SDS011;33449;50.712;7.124;2023-04-25T07:14:54;17.20;;;7.25;;
46701;SDS011;33449;50.712;7.124;2023-04-25T07:17:21;35.10;;;7.70;;
46701;SDS011;33449;50.712;7.124;2023-04-25T07:19:48;21.73;;;9.20;;
46701;SDS011;33449;50.712;7.124;2023-04-25T07:22:15;26.23;;;8.98;;
46701;SDS011;33449;50.712;7.124;2023-04-25T07:24:43;26.70;;;8.63;;
46701;SDS011;33449;50.712;7.124;2023-04-25T07:27:14;20.13;;;7.22;;
46701;SDS011;33449;50.712;7.124;2023-04-25T07:29:41;28.05;;;7.28;;
46701;SDS011;33449;50.712;7.124;2023-04-25T07:32:10;20.23;;;6.88;;
46701;SDS011;33449;50.712;7.124;2023-04-25T07:34:39;22.73;;;6.70;;
46701;SDS011;33449;50.712;7.124;2023-04-25T07:37:07;25.42;;;6.28;;
46701;SDS011;33449;50.712;7.124;2023-04-25T07:39:35;14.27;;;5.18;;
46701;SDS011;33449;50.712;7.124;2023-04-25T07:42:03;24.05;;;6.20;;
46701;SDS011;33449;50.712;7.124;2023-04-25T07:44:34;20.88;;;4.95;;
46701;SDS011;33449;50.712;7.124;2023-04-25T07:47:05;17.48;;;5.18;;
46701;SDS011;33449;50.712;7.124;2023-04-25T07:52:03;19.35;;;4.68;;
46701;SDS011;33449;50.712;7.124;2023-04-25T07:54:32;20.17;;;3.92;;
46701;SDS011;33449;50.712;7.124;2023-04-25T07:57:00;17.98;;;4.82;;
46701;SDS011;33449;50.712;7.124;2023-04-25T07:59:30;17.27;;;4.68;;
46701;SDS011;33449;50.712;7.124;2023-04-25T08:01:58;15.18;;;4.32;;
46701;SDS011;33449;50.712;7.124;2023-04-25T08:04:25;21.17;;;4.47;;
46701;SDS011;33449;50.712;7.124;2023-04-25T08:06:54;15.73;;;4.05;;
46701;SDS011;33449;50.712;7.124;2023-04-25T08:09:21;19.58;;;4.82;;
46701;SDS011;33449;50.712;7.124;2023-04-25T08:11:51;17.70;;;6.85;;
46701;SDS011;33449;50.712;7.124;2023-04-25T08:14:18;22.67;;;4.68;;
46701;SDS011;33449;50.712;7.124;2023-04-25T08:16:45;14.43;;;3.42;;
46701;SDS011;33449;50.712;7.124;2023-04-25T08:19:13;12.30;;;4.35;;
46701;SDS011;33449;50.712;7.124;2023-04-25T08:21:40;15.85;;;3.60;;
46701;SDS011;33449;50.712;7.124;2023-04-25T08:24:08;16.08;;;4.28;;
46701;SDS011;33449;50.712;7.124;2023-04-25T08:26:35;12.95;;;3.30;;
46701;SDS011;33449;50.712;7.124;2023-04-25T08:29:03;18.48;;;4.10;;
46701;SDS011;33449;50.712;7.124;2023-04-25T08:31:31;21.77;;;3.45;;
46701;SDS011;33449;50.712;7.124;2023-04-25T08:33:59;12.65;;;4.07;;
46701;SDS011;33449;50.712;7.124;2023-04-25T08:36:26;11.55;;;4.40;;
46701;SDS011;33449;50.712;7.124;2023-04-25T08:41:24;11.43;;;3.40;;
46701;SDS011;33449;50.712;7.124;2023-04-25T08:43:52;9.93;;;3.25;;
46701;SDS011;33449;50.712;7.124;2023-04-25T08:46:20;18.75;;;5.05;;
46701;SDS011;33449;50.712;7.124;2023-04-25T08:48:47;15.27;;;4.40;;
46701;SDS011;33449;50.712;7.124;2023-04-25T08:51:17;18.02;;;3.28;;
46701;SDS011;33449;50.712;7.124;2023-04-25T08:53:49;9.23;;;3.15;;
46701;SDS011;33449;50.712;7.124;2023-04-25T08:56:22;11.65;;;3.92;;
46701;SDS011;33449;50.712;7.124;2023-04-25T08:58:50;17.17;;;4.43;;
46701;SDS011;33449;50.712;7.124;2023-04-25T09:01:18;16.10;;;3.67;;
46701;SDS011;33449;50.712;7.124;2023-04-25T09:03:45;18.27;;;3.92;;
46701;SDS011;33449;50.712;7.124;2023-04-25T09:06:14;14.00;;;3.13;;
46701;SDS011;33449;50.712;7.124;2023-04-25T09:08:42;11.45;;;3.05;;
46701;SDS011;33449;50.712;7.124;2023-04-25T09:11:09;11.25;;;3.72;;
46701;SDS011;33449;50.712;7.124;2023-04-25T09:13:36;13.07;;;3.90;;
46701;SDS011;33449;50.712;7.124;2023-04-25T09:16:03;15.10;;;3.60;;
46701;SDS011;33449;50.712;7.124;2023-04-25T09:18:31;12.13;;;3.30;;
46701;SDS011;33449;50.712;7.124;2023-04-25T09:21:09;16.13;;;5.28;;
46701;SDS011;33449;50.712;7.124;2023-04-25T09:23:48;6.03;;;3.35;;
46701;SDS011;33449;50.712;7.124;2023-04-25T09:26:19;11.18;;;2.50;;
46701;SDS011;33449;50.712;7.124;2023-04-25T09:28:49;13.60;;;3.83;;
46701;SDS011;33449;50.712;7.124;2023-04-25T09:31:23;6.82;;;2.28;;
46701;SDS011;33449;50.712;7.124;2023-04-25T09:33:52;8.32;;;3.03;;
46701;SDS011;33449;50.712;7.124;2023-04-25T09:36:27;11.40;;;2.78;;
46701;SDS011;33449;50.712;7.124;2023-04-25T09:38:54;15.52;;;3.38;;
46701;SDS011;33449;50.712;7.124;2023-04-25T09:41:25;11.65;;;3.10;;
46701;SDS011;33449;50.712;7.124;2023-04-25T09:43:58;9.00;;;2.70;;
46701;SDS011;33449;50.712;7.124;2023-04-25T09:46:33;10.63;;;2.22;;
46701;SDS011;33449;50.712;7.124;2023-04-25T09:49:06;10.43;;;2.53;;
46701;SDS011;33449;50.712;7.124;2023-04-25T09:51:33;11.15;;;2.42;;
46701;SDS011;33449;50.712;7.124;2023-04-25T09:54:00;10.50;;;2.40;;
46701;SDS011;33449;50.712;7.124;2023-04-25T09:56:27;7.65;;;2.95;;
46701;SDS011;33449;50.712;7.124;2023-04-25T09:58:56;7.53;;;2.35;;
46701;SDS011;33449;50.712;7.124;2023-04-25T10:01:23;7.10;;;2.67;;
46701;SDS011;33449;50.712;7.124;2023-04-25T10:03:51;14.13;;;2.45;;
46701;SDS011;33449;50.712;7.124;2023-04-25T10:06:20;13.45;;;3.72;;
46701;SDS011;33449;50.712;7.124;2023-04-25T10:08:49;11.50;;;4.00;;
46701;SDS011;33449;50.712;7.124;2023-04-25T10:11:17;12.65;;;3.65;;
46701;SDS011;33449;50.712;7.124;2023-04-25T10:13:45;10.07;;;2.78;;
46701;SDS011;33449;50.712;7.124;2023-04-25T10:16:14;7.05;;;2.65;;
46701;SDS011;33449;50.712;7.124;2023-04-25T10:18:42;11.07;;;3.25;;
46701;SDS011;33449;50.712;7.124;2023-04-25T10:21:16;11.43;;;3.65;;
46701;SDS011;33449;50.712;7.124;2023-04-25T10:23:47;9.57;;;4.75;;
46701;SDS011;33449;50.712;7.124;2023-04-25T10:26:42;7.53;;;3.15;;
46701;SDS011;33449;50.712;7.124;2023-04-25T10:29:28;8.20;;;2.20;;
46701;SDS011;33449;50.712;7.124;2023-04-25T10:31:55;10.27;;;2.70;;
46701;SDS011;33449;50.712;7.124;2023-04-25T10:34:24;5.78;;;2.67;;
46701;SDS011;33449;50.712;7.124;2023-04-25T10:36:52;8.98;;;2.05;;
46701;SDS011;33449;50.712;7.124;2023-04-25T10:39:23;12.32;;;2.45;;
46701;SDS011;33449;50.712;7.124;2023-04-25T10:41:57;8.00;;;3.17;;
46701;SDS011;33449;50.712;7.124;2023-04-25T10:44:28;8.63;;;2.75;;
46701;SDS011;33449;50.712;7.124;2023-04-25T10:46:56;5.78;;;2.78;;
46701;SDS011;33449;50.712;7.124;2023-04-25T10:49:31;13.52;;;2.88;;
46701;SDS011;33449;50.712;7.124;2023-04-25T10:52:15;11.40;;;3.35;;
46701;SDS011;33449;50.712;7.124;2023-04-25T10:57:25;7.22;;;2.83;;
46701;SDS011;33449;50.712;7.124;2023-04-25T10:59:53;17.65;;;4.10;;
46701;SDS011;33449;50.712;7.124;2023-04-25T11:02:21;10.05;;;3.13;;
46701;SDS011;33449;50.712;7.124;2023-04-25T11:04:53;13.38;;;3.38;;
46701;SDS011;33449;50.712;7.124;2023-04-25T11:09:55;11.90;;;2.58;;
46701;SDS011;33449;50.712;7.124;2023-04-25T11:12:29;11.65;;;3.60;;
46701;SDS011;33449;50.712;7.124;2023-04-25T11:15:03;10.75;;;3.03;;
46701;SDS011;33449;50.712;7.124;2023-04-25T11:17:30;14.80;;;4.13;;
46701;SDS011;33449;50.712;7.124;2023-04-25T11:19:58;10.98;;;3.65;;
46701;SDS011;33449;50.712;7.124;2023-04-25T11:22:26;14.95;;;3.42;;
46701;SDS011;33449;50.712;7.124;2023-04-25T11:24:54;13.70;;;3.00;;
46701;SDS011;33449;50.712;7.124;2023-04-25T11:27:21;9.50;;;3.03;;
46701;SDS011;33449;50.712;7.124;2023-04-25T11:32:57;7.95;;;3.08;;
46701;SDS011;33449;50.712;7.124;2023-04-25T11:35:31;6.80;;;2.38;;
46701;SDS011;33449;50.712;7.124;2023-04-25T11:37:59;10.15;;;3.53;;
46701;SDS011;33449;50.712;7.124;2023-04-25T11:40:28;10.77;;;2.95;;
46701;SDS011;33449;50.712;7.124;2023-04-25T11:42:59;8.82;;;2.65;;
46701;SDS011;33449;50.712;7.124;2023-04-25T11:45:26;7.43;;;3.37;;
46701;SDS011;33449;50.712;7.124;2023-04-25T11:47:54;9.77;;;2.80;;
46701;SDS011;33449;50.712;7.124;2023-04-25T11:50:22;17.15;;;3.72;;
46701;SDS011;33449;50.712;7.124;2023-04-25T11:56:01;10.82;;;4.00;;
46701;SDS011;33449;50.712;7.124;2023-04-25T11:58:28;15.05;;;3.53;;
46701;SDS011;33449;50.712;7.124;2023-04-25T12:00:56;11.10;;;3.67;;
46701;SDS011;33449;50.712;7.124;2023-04-25T12:03:25;12.15;;;3.33;;
46701;SDS011;33449;50.712;7.124;2023-04-25T12:06:31;13.98;;;5.03;;
46701;SDS011;33449;50.712;7.124;2023-04-25T12:09:03;9.05;;;3.28;;
46701;SDS011;33449;50.712;7.124;2023-04-25T12:18:12;4.55;;;1.75;;
46701;SDS011;33449;50.712;7.124;2023-04-25T12:20:41;10.52;;;2.22;;
46701;SDS011;33449;50.712;7.124;2023-04-25T12:23:32;4.13;;;1.90;;
46701;SDS011;33449;50.712;7.124;2023-04-25T12:26:04;9.25;;;2.88;;
46701;SDS011;33449;50.712;7.124;2023-04-25T12:35:10;6.68;;;2.17;;
46701;SDS011;33449;50.712;7.124;2023-04-25T12:37:40;7.85;;;2.70;;
46701;SDS011;33449;50.712;7.124;2023-04-25T12:40:26;9.45;;;2.85;;
46701;SDS011;33449;50.712;7.124;2023-04-25T12:43:14;13.05;;;4.65;;
46701;SDS011;33449;50.712;7.124;2023-04-25T12:45:52;9.48;;;3.00;;
46701;SDS011;33449;50.712;7.124;2023-04-25T12:48:37;8.98;;;2.88;;
46701;SDS011;33449;50.712;7.124;2023-04-25T12:51:15;12.30;;;2.85;;
46701;SDS011;33449;50.712;7.124;2023-04-25T12:53:51;8.70;;;2.75;;
46701;SDS011;33449;50.712;7.124;2023-04-25T12:56:20;10.90;;;2.80;;
46701;SDS011;33449;50.712;7.124;2023-04-25T12:58:58;11.48;;;2.72;;
46701;SDS011;33449;50.712;7.124;2023-04-25T13:01:25;8.50;;;2.33;;
46701;SDS011;33449;50.712;7.124;2023-04-25T13:03:52;8.50;;;2.25;;
46701;SDS011;33449;50.712;7.124;2023-04-25T13:06:26;8.45;;;2.03;;
46701;SDS011;33449;50.712;7.124;2023-04-25T13:08:55;4.30;;;2.00;;
46701;SDS011;33449;50.712;7.124;2023-04-25T13:11:25;10.52;;;3.08;;
46701;SDS011;33449;50.712;7.124;2023-04-25T13:13:52;11.00;;;3.13;;
46701;SDS011;33449;50.712;7.124;2023-04-25T13:16:19;12.07;;;5.15;;
46701;SDS011;33449;50.712;7.124;2023-04-25T13:18:57;9.23;;;2.85;;
46701;SDS011;33449;50.712;7.124;2023-04-25T13:21:52;7.72;;;2.35;;
46701;SDS011;33449;50.712;7.124;2023-04-25T13:24:23;11.25;;;2.75;;
46701;SDS011;33449;50.712;7.124;2023-04-25T13:26:50;7.38;;;2.30;;
46701;SDS011;33449;50.712;7.124;2023-04-25T13:29:18;9.10;;;2.95;;
46701;SDS011;33449;50.712;7.124;2023-04-25T13:31:45;13.85;;;2.60;;
46701;SDS011;33449;50.712;7.124;2023-04-25T13:34:12;9.82;;;3.10;;
46701;SDS011;33449;50.712;7.124;2023-04-25T13:36:39;8.32;;;2.83;;
46701;SDS011;33449;50.712;7.124;2023-04-25T13:39:06;9.45;;;2.83;;
46701;SDS011;33449;50.712;7.124;2023-04-25T13:41:33;9.25;;;2.92;;
46701;SDS011;33449;50.712;7.124;2023-04-25T13:44:07;5.10;;;2.28;;
46701;SDS011;33449;50.712;7.124;2023-04-25T13:46:34;11.48;;;2.70;;
46701;SDS011;33449;50.712;7.124;2023-04-25T13:49:12;14.15;;;2.55;;
46701;SDS011;33449;50.712;7.124;2023-04-25T13:51:40;7.53;;;2.10;;
46701;SDS011;33449;50.712;7.124;2023-04-25T13:54:08;6.53;;;2.40;;
46701;SDS011;33449;50.712;7.124;2023-04-25T13:56:35;4.90;;;1.75;;
46701;SDS011;33449;50.712;7.124;2023-04-25T13:59:09;7.53;;;2.30;;
46701;SDS011;33449;50.712;7.124;2023-04-25T14:01:40;11.15;;;2.28;;
46701;SDS011;33449;50.712;7.124;2023-04-25T14:04:08;10.98;;;2.10;;
46701;SDS011;33449;50.712;7.124;2023-04-25T14:06:40;7.00;;;2.40;;
46701;SDS011;33449;50.712;7.124;2023-04-25T14:09:07;7.95;;;2.50;;
46701;SDS011;33449;50.712;7.124;2023-04-25T14:11:36;9.95;;;2.85;;
46701;SDS011;33449;50.712;7.124;2023-04-25T14:14:05;5.53;;;2.97;;
46701;SDS011;33449;50.712;7.124;2023-04-25T14:16:55;8.82;;;3.25;;
46701;SDS011;33449;50.712;7.124;2023-04-25T14:19:34;9.60;;;3.35;;
46701;SDS011;33449;50.712;7.124;2023-04-25T14:22:14;7.20;;;1.98;;
46701;SDS011;33449;50.712;7.124;2023-04-25T14:24:51;7.57;;;2.45;;
46701;SDS011;33449;50.712;7.124;2023-04-25T14:27:21;9.38;;;3.08;;
46701;SDS011;33449;50.712;7.124;2023-04-25T14:30:02;10.50;;;2.30;;
46701;SDS011;33449;50.712;7.124;2023-04-25T14:32:36;5.40;;;2.72;;
46701;SDS011;33449;50.712;7.124;2023-04-25T14:35:08;6.28;;;2.00;;
46701;SDS011;33449;50.712;7.124;2023-04-25T14:37:38;9.90;;;2.65;;
46701;SDS011;33449;50.712;7.124;2023-04-25T14:40:09;14.18;;;2.03;;
46701;SDS011;33449;50.712;7.124;2023-04-25T14:42:37;8.68;;;2.30;;
46701;SDS011;33449;50.712;7.124;2023-04-25T14:45:24;4.95;;;1.88;;
46701;SDS011;33449;50.712;7.124;2023-04-25T14:48:02;4.53;;;2.00;;
46701;SDS011;33449;50.712;7.124;2023-04-25T14:50:46;10.45;;;2.58;;
46701;SDS011;33449;50.712;7.124;2023-04-25T14:53:32;8.07;;;2.22;;
46701;SDS011;33449;50.712;7.124;2023-04-25T14:56:05;5.30;;;2.20;;
46701;SDS011;33449;50.712;7.124;2023-04-25T14:58:43;8.02;;;1.95;;
46701;SDS011;33449;50.712;7.124;2023-04-25T15:01:14;6.78;;;2.50;;
46701;SDS011;33449;50.712;7.124;2023-04-25T15:03:43;5.00;;;2.30;;
46701;SDS011;33449;50.712;7.124;2023-04-25T15:06:17;5.38;;;1.95;;
46701;SDS011;33449;50.712;7.124;2023-04-25T15:08:55;12.82;;;2.42;;
46701;SDS011;33449;50.712;7.124;2023-04-25T15:11:27;8.68;;;1.85;;
46701;SDS011;33449;50.712;7.124;2023-04-25T15:14:01;5.78;;;1.80;;
46701;SDS011;33449;50.712;7.124;2023-04-25T15:19:10;4.18;;;2.00;;
46701;SDS011;33449;50.712;7.124;2023-04-25T15:21:49;6.38;;;1.45;;
46701;SDS011;33449;50.712;7.124;2023-04-25T15:24:19;6.13;;;2.10;;
46701;SDS011;33449;50.712;7.124;2023-04-25T15:26:55;5.40;;;1.73;;
46701;SDS011;33449;50.712;7.124;2023-04-25T15:29:22;7.47;;;1.85;;
46701;SDS011;33449;50.712;7.124;2023-04-25T15:32:15;4.82;;;1.40;;
46701;SDS011;33449;50.712;7.124;2023-04-25T15:34:56;3.88;;;1.40;;
46701;SDS011;33449;50.712;7.124;2023-04-25T15:37:24;3.45;;;1.20;;
46701;SDS011;33449;50.712;7.124;2023-04-25T15:47:57;8.48;;;1.60;;
46701;SDS011;33449;50.712;7.124;2023-04-25T15:50:30;10.18;;;1.42;;
46701;SDS011;33449;50.712;7.124;2023-04-25T15:53:07;5.18;;;1.52;;
46701;SDS011;33449;50.712;7.124;2023-04-25T15:55:35;4.60;;;1.50;;
46701;SDS011;33449;50.712;7.124;2023-04-25T15:58:12;4.68;;;1.42;;
46701;SDS011;33449;50.712;7.124;2023-04-25T16:00:40;3.22;;;1.30;;
46701;SDS011;33449;50.712;7.124;2023-04-25T16:03:14;10.73;;;2.03;;
46701;SDS011;33449;50.712;7.124;2023-04-25T16:05:47;5.38;;;1.60;;
46701;SDS011;33449;50.712;7.124;2023-04-25T16:08:19;8.40;;;1.90;;
46701;SDS011;33449;50.712;7.124;2023-04-25T16:10:50;5.28;;;2.08;;